Airfield :
LOGIN :

Register | Disclaimer

   EN    FR    IT 

 










Legend :    VFR   Marginal VFR   IFR   Intensive IFR   Very Intensive IFR
Visi :
Ceiling :
>= 8 km
>= 3000ft
5 to 8 km
1000 to 3000 ft
1500m to 5 km
500 to 1000 ft
800 to 1500m
200 to 500 ft
< 800m
< 200 ft
Symbols :   Thunderstorms  Fog  Heavy snow  Heavy precipitations  Wind > 20 kt
SIGMETs :     Misc.  Thunderstorms  Icing  Turbulence  Mountain Waves  Volcanic Ashes







- Airport Elevation : 1470 ft
- IATA code : KLU


LOWK - Klagenfurt

CURRENT METAR :
  • 150020Z AUTO VRB02KT 0550 R10/0750N R28/0650D -SHSN FZFG SCT001 BKN002 M00/M00 Q1000

EXPIRED METARs :
  • 142350Z AUTO VRB02KT 0650 R10/0700N R28/0600N FZFG VV001 M00/M00 Q1000
  • 142320Z AUTO VRB02KT 0450 R10/0550N R28/0500N FG FEW001 BKN002 00/00 Q1000
  • 142250Z AUTO 31004KT 0550 R10/0600N R28/0800U FZFG OVC001 M00/M00 Q1000
  • 142220Z 31003KT 260V330 0400 R10/0400N R28/0500N FZFG SCT001 BKN002 M00/M00 Q1001 R10L/29//95 TEMPO 0300 FG VV001
  • 142150Z 32004KT 0450 R10/0550U R28/0600U FZFG FEW001 BKN002 M00/M00 Q1002 R10L/29//95 TEMPO 0300 FG VV001

TAF TAF LOWK
Valid from the 15 at 00:00 until the 16 at 00:00 UTC


142315Z 1500/1524 VRB02KT 9999 FEW040 SCT080 BKN120 TX03/1506Z TNM00/1524Z
TEMPO 1500/1507 0300 FZFG VV001
PROB30
TEMPO 1506/1507 2000 -FZRA BR
TEMPO 1507/1511 -SHRA
TEMPO 1515/1524 4000 -SHSNRA SCT040 BKN060
PROB40
TEMPO 1520/1524 2000 -SN BR BKN025
No reported NOTAMs for that airfield.
1 SIGMET reported for the Wien FIR (LOVV) :
 
Severe turbulence
LOVV SIGMET 5 VALID 142300/150200 LOWW
LOVV WIEN FIR SEV TURB FCST SW OF LINE N4735 E01200 - N4635 E01330 FL220/340 MOV ESE NC=



MET'MAP, your aeronautical weather chart ! - Copyright ORBIFLY December 2007 - Disclaimer

ORBIFLY MET'MAP TEAM :

Programming & Development : Alexandra Zaïnal
Concept & Development : Baudouin d'Aumeries
Co-Development & Prog : Marc-Olivier Méhu
Technical & hardware support : Manuel Goepfert

Contact : metmap@orbifly.com




SOURCES & CREDITS :

   NOAA